createdAt,value
2022-10-01T00:01:12.407Z,100171.53
2022-10-01T00:03:39.084Z,100164.44
2022-10-01T00:06:17.678Z,100168.81
2022-10-01T00:08:48.986Z,100171.41
2022-10-01T00:11:24.318Z,100179.13
2022-10-01T00:13:52.095Z,100181.84
2022-10-01T00:16:21.442Z,100174.41
2022-10-01T00:18:49.106Z,100182.56
2022-10-01T00:21:21.272Z,100178.09
2022-10-01T00:23:48.580Z,100183.78
2022-10-01T00:26:18.614Z,100179.50
2022-10-01T00:28:47.828Z,100176.75
2022-10-01T00:31:15.958Z,100171.28
2022-10-01T00:33:43.074Z,100176.38
2022-10-01T00:36:11.451Z,100186.94
2022-10-01T00:38:40.389Z,100178.63
2022-10-01T00:41:07.716Z,100184.19
2022-10-01T00:43:37.880Z,100193.88
2022-10-01T00:46:22.025Z,100198.50
2022-10-01T00:49:02.754Z,100197.06
2022-10-01T00:51:34.697Z,100193.88
2022-10-01T00:54:08.648Z,100186.63
2022-10-01T00:56:36.444Z,100180.53
2022-10-01T00:59:03.277Z,100185.03
2022-10-01T01:01:30.106Z,100191.00
2022-10-01T01:03:57.772Z,100210.13
2022-10-01T01:06:24.495Z,100211.16
2022-10-01T01:08:55.153Z,100202.72
2022-10-01T01:11:29.389Z,100184.94
2022-10-01T01:14:12.186Z,100185.00
2022-10-01T01:17:08.584Z,100163.94
2022-10-01T01:20:29.856Z,100128.34
2022-10-01T01:23:20.101Z,100138.09
2022-10-01T01:26:01.110Z,100123.19
2022-10-01T01:28:33.578Z,100125.22
2022-10-01T01:31:05.704Z,100124.19
2022-10-01T01:33:35.892Z,100137.34
2022-10-01T01:36:08.054Z,100151.78
2022-10-01T01:38:41.166Z,100137.94
2022-10-01T01:41:08.946Z,100152.16
2022-10-01T01:43:40.763Z,100151.31
2022-10-01T01:46:11.135Z,100136.13
2022-10-01T01:48:41.736Z,100116.75
2022-10-01T01:51:20.607Z,100129.56
2022-10-01T01:53:47.132Z,100135.44
2022-10-01T01:56:14.213Z,100133.47
2022-10-01T01:58:40.921Z,100130.16
2022-10-01T02:01:07.660Z,100138.03
2022-10-01T02:03:35.333Z,100139.81
2022-10-01T02:06:23.394Z,100136.38
2022-10-01T02:09:02.940Z,100150.13
2022-10-01T02:11:36.934Z,100145.44
2022-10-01T02:14:31.004Z,100153.78
2022-10-01T02:17:13.395Z,100141.78
2022-10-01T02:19:58.879Z,100143.47
2022-10-01T02:22:38.109Z,100148.16
2022-10-01T02:25:08.047Z,100133.78
2022-10-01T02:27:48.748Z,100138.59
2022-10-01T02:30:15.941Z,100143.81
2022-10-01T02:32:46.358Z,100145.75
2022-10-01T02:35:17.116Z,100148.16
2022-10-01T02:37:46.112Z,100152.34
2022-10-01T02:40:17.915Z,100145.66
2022-10-01T02:42:50.015Z,100159.69
2022-10-01T02:45:22.810Z,100160.63
2022-10-01T02:48:00.710Z,100167.94
2022-10-01T02:50:34.351Z,100155.53
2022-10-01T02:53:09.277Z,100148.56
2022-10-01T02:55:38.611Z,100152.31
2022-10-01T02:58:05.847Z,100170.19
2022-10-01T03:00:32.455Z,100173.38
2022-10-01T03:02:59.327Z,100181.78
2022-10-01T03:05:26.367Z,100169.22
2022-10-01T03:07:52.950Z,100162.34
2022-10-01T03:10:19.796Z,100160.00
2022-10-01T03:12:46.701Z,100167.38
2022-10-01T03:15:16.335Z,100175.03
2022-10-01T03:17:42.974Z,100167.59
2022-10-01T03:20:10.745Z,100156.06
2022-10-01T03:22:37.313Z,100172.94
2022-10-01T03:25:04.377Z,100179.19
2022-10-01T03:27:30.923Z,100169.50
2022-10-01T03:29:57.437Z,100181.34
2022-10-01T03:32:23.939Z,100185.97
2022-10-01T03:34:50.435Z,100182.31
2022-10-01T03:37:16.959Z,100186.13
2022-10-01T03:39:43.476Z,100197.09
2022-10-01T03:42:10.062Z,100205.56
2022-10-01T03:44:36.540Z,100204.69
2022-10-01T03:47:03.082Z,100213.88
2022-10-01T03:49:29.631Z,100212.84
2022-10-01T03:51:56.526Z,100222.50
2022-10-01T03:54:23.064Z,100219.13
2022-10-01T03:56:49.906Z,100212.19
2022-10-01T03:59:16.448Z,100224.47
2022-10-01T04:01:43.012Z,100222.78
2022-10-01T04:04:09.855Z,100227.00
2022-10-01T04:06:36.576Z,100233.47
2022-10-01T04:09:03.271Z,100242.06
2022-10-01T04:11:30.224Z,100235.28
2022-10-01T04:13:58.018Z,100250.56
2022-10-01T04:16:25.076Z,100264.34
2022-10-01T04:18:52.170Z,100252.25
2022-10-01T04:21:19.359Z,100261.84
2022-10-01T04:23:45.987Z,100271.00
2022-10-01T04:26:12.855Z,100274.66
2022-10-01T04:28:39.366Z,100271.56
2022-10-01T04:31:24.498Z,100254.50
2022-10-01T04:33:56.113Z,100268.94
2022-10-01T04:36:24.479Z,100270.56
2022-10-01T04:39:00.887Z,100264.44
2022-10-01T04:41:30.763Z,100265.41
2022-10-01T04:44:00.066Z,100263.59
2022-10-01T04:46:27.628Z,100267.56
2022-10-01T04:48:54.162Z,100253.88
2022-10-01T04:51:20.680Z,100262.41
2022-10-01T04:53:47.254Z,100262.44
2022-10-01T04:56:13.777Z,100271.03
2022-10-01T04:58:41.329Z,100278.78
2022-10-01T05:01:07.872Z,100277.03
2022-10-01T05:03:34.503Z,100279.34
2022-10-01T05:06:01.050Z,100272.59
2022-10-01T05:08:27.600Z,100273.19
2022-10-01T05:10:54.906Z,100275.97
2022-10-01T05:13:21.436Z,100282.75
2022-10-01T05:15:52.209Z,100284.19
2022-10-01T05:18:19.122Z,100288.47
2022-10-01T05:20:45.691Z,100282.72
2022-10-01T05:23:12.274Z,100284.66
2022-10-01T05:25:38.750Z,100291.38
2022-10-01T05:28:05.667Z,100295.59
2022-10-01T05:30:33.938Z,100299.09
2022-10-01T05:33:03.391Z,100300.69
2022-10-01T05:35:30.539Z,100294.63
2022-10-01T05:38:02.938Z,100303.06
2022-10-01T05:40:30.229Z,100309.09
2022-10-01T05:42:58.429Z,100313.16
2022-10-01T05:45:27.338Z,100313.50
2022-10-01T05:48:01.999Z,100313.53
2022-10-01T05:50:31.501Z,100317.66
2022-10-01T05:52:59.358Z,100326.63
2022-10-01T05:55:27.148Z,100326.47
2022-10-01T05:57:58.455Z,100331.13
2022-10-01T06:00:28.364Z,100339.56
2022-10-01T06:02:59.533Z,100346.50
2022-10-01T06:05:27.756Z,100348.03
2022-10-01T06:07:54.295Z,100339.50
2022-10-01T06:10:21.585Z,100335.09
2022-10-01T06:12:48.566Z,100342.78
2022-10-01T06:15:16.078Z,100332.09
2022-10-01T06:17:45.918Z,100350.00
2022-10-01T06:20:14.733Z,100354.06
2022-10-01T06:22:43.086Z,100353.03
2022-10-01T06:25:13.931Z,100352.41
2022-10-01T06:27:40.675Z,100351.19
2022-10-01T06:30:07.722Z,100358.19
2022-10-01T06:32:35.148Z,100362.41
2022-10-01T06:35:02.734Z,100357.22
2022-10-01T06:37:29.850Z,100356.25
2022-10-01T06:39:56.378Z,100359.66
2022-10-01T06:42:22.956Z,100354.38
2022-10-01T06:44:49.434Z,100363.47
2022-10-01T06:47:15.988Z,100376.34
2022-10-01T06:49:46.767Z,100387.31
2022-10-01T06:52:32.817Z,100378.78
2022-10-01T06:55:01.502Z,100385.38
2022-10-01T06:57:29.104Z,100391.44
2022-10-01T06:59:55.811Z,100399.97
2022-10-01T07:02:29.266Z,100395.34
2022-10-01T07:04:59.923Z,100395.22
2022-10-01T07:07:35.267Z,100395.53
2022-10-01T07:10:04.092Z,100394.38
2022-10-01T07:12:31.080Z,100397.63
2022-10-01T07:14:57.593Z,100408.59
2022-10-01T07:17:24.157Z,100416.69
2022-10-01T07:19:50.768Z,100414.31
2022-10-01T07:22:19.311Z,100411.16
2022-10-01T07:24:46.770Z,100412.53
2022-10-01T07:27:14.006Z,100411.22
2022-10-01T07:29:41.810Z,100417.00
2022-10-01T07:32:10.519Z,100415.88
2022-10-01T07:34:40.294Z,100424.19
2022-10-01T07:37:07.659Z,100422.69
2022-10-01T07:39:34.496Z,100421.47
2022-10-01T07:42:01.659Z,100417.19
2022-10-01T07:44:29.508Z,100425.81
2022-10-01T07:46:57.073Z,100427.16
2022-10-01T07:49:25.164Z,100435.81
2022-10-01T07:51:54.397Z,100439.44
2022-10-01T07:54:22.437Z,100442.38
2022-10-01T07:56:52.801Z,100441.72
2022-10-01T07:59:19.542Z,100451.28
2022-10-01T08:01:49.699Z,100457.25
2022-10-01T08:04:34.835Z,100456.22
2022-10-01T08:07:01.704Z,100460.28
2022-10-01T08:09:28.275Z,100464.91
2022-10-01T08:11:54.808Z,100464.41
2022-10-01T08:14:21.700Z,100462.69
2022-10-01T08:16:48.270Z,100466.38
2022-10-01T08:19:15.346Z,100465.28
2022-10-01T08:21:42.558Z,100464.16
2022-10-01T08:24:09.517Z,100464.91
2022-10-01T08:26:35.991Z,100467.00
2022-10-01T08:29:02.572Z,100459.34
2022-10-01T08:31:29.133Z,100464.47
2022-10-01T08:33:57.500Z,100457.97
2022-10-01T08:36:24.455Z,100468.31
2022-10-01T08:38:50.998Z,100472.28
2022-10-01T08:41:36.644Z,100472.59
2022-10-01T08:44:07.183Z,100478.00
2022-10-01T08:46:37.180Z,100478.19
2022-10-01T08:49:25.180Z,100484.13
2022-10-01T08:51:57.850Z,100482.44
2022-10-01T08:54:46.540Z,100490.69
2022-10-01T08:57:17.314Z,100485.81
2022-10-01T08:59:51.987Z,100483.41
2022-10-01T09:02:24.827Z,100479.34
2022-10-01T09:05:01.600Z,100484.53
2022-10-01T09:07:59.359Z,100486.84
2022-10-01T09:10:44.565Z,100477.91
2022-10-01T09:13:32.779Z,100481.41
2022-10-01T09:16:29.530Z,100486.94
2022-10-01T09:19:03.634Z,100490.66
2022-10-01T09:21:52.805Z,100493.06
2022-10-01T09:24:28.144Z,100491.72
2022-10-01T09:26:55.246Z,100486.78
2022-10-01T09:29:41.390Z,100485.84
2022-10-01T09:32:11.852Z,100486.41
2022-10-01T09:34:41.773Z,100491.59
2022-10-01T09:37:20.183Z,100488.38
2022-10-01T09:39:52.456Z,100480.09
2022-10-01T09:42:20.625Z,100481.63
2022-10-01T09:44:47.600Z,100479.13
2022-10-01T09:47:20.306Z,100480.16
2022-10-01T09:49:49.106Z,100480.19
2022-10-01T09:52:33.563Z,100476.78
2022-10-01T09:55:11.788Z,100477.69
2022-10-01T09:57:44.725Z,100478.59
2022-10-01T10:00:18.230Z,100482.91
2022-10-01T10:02:50.085Z,100491.66
2022-10-01T10:05:22.862Z,100496.06
2022-10-01T10:08:00.229Z,100486.72
2022-10-01T10:10:35.642Z,100491.63
2022-10-01T10:13:13.840Z,100496.06
2022-10-01T10:15:59.345Z,100507.34
2022-10-01T10:18:35.457Z,100501.34
2022-10-01T10:21:07.476Z,100504.00
2022-10-01T10:23:34.428Z,100501.44
2022-10-01T10:26:06.177Z,100499.78
2022-10-01T10:28:44.576Z,100487.66
2022-10-01T10:31:22.599Z,100499.84
2022-10-01T10:33:54.166Z,100498.06
2022-10-01T10:36:25.238Z,100493.75
2022-10-01T10:38:53.602Z,100488.59
2022-10-01T10:41:26.219Z,100479.91
2022-10-01T10:44:00.621Z,100494.66
2022-10-01T10:46:36.286Z,100485.19
2022-10-01T10:49:30.006Z,100486.94
2022-10-01T10:51:58.734Z,100480.84
2022-10-01T10:54:37.578Z,100484.34
2022-10-01T10:57:21.177Z,100481.75
2022-10-01T11:00:17.738Z,100472.16
2022-10-01T11:02:50.089Z,100478.25
2022-10-01T11:05:20.686Z,100473.91
2022-10-01T11:07:49.002Z,100481.72
2022-10-01T11:10:43.701Z,100479.97
2022-10-01T11:13:38.019Z,100489.50
2022-10-01T11:16:19.592Z,100490.38
2022-10-01T11:19:11.330Z,100480.00
2022-10-01T11:21:56.548Z,100490.38
2022-10-01T11:24:47.514Z,100489.50
2022-10-01T11:27:40.679Z,100487.78
2022-10-01T11:30:16.897Z,100484.31
2022-10-01T11:33:03.634Z,100495.56
2022-10-01T11:35:55.453Z,100503.38
2022-10-01T11:38:35.218Z,100500.75
2022-10-01T11:41:01.684Z,100495.56
2022-10-01T11:43:36.800Z,100491.16
2022-10-01T11:46:41.491Z,100499.06
2022-10-01T11:49:39.462Z,100495.56
2022-10-01T11:52:33.147Z,100492.09
2022-10-01T11:55:29.796Z,100492.97
2022-10-01T11:58:21.233Z,100499.03
2022-10-01T12:00:58.859Z,100498.03
2022-10-01T12:03:33.110Z,100499.88
2022-10-01T12:05:59.969Z,100498.97
2022-10-01T12:08:31.915Z,100495.53
2022-10-01T12:11:11.777Z,100499.84
2022-10-01T12:13:45.748Z,100484.19
2022-10-01T12:16:41.170Z,100495.31
2022-10-01T12:19:17.552Z,100496.25
2022-10-01T12:22:20.242Z,100479.72
2022-10-01T12:24:49.030Z,100472.81
2022-10-01T12:27:30.804Z,100476.16
2022-10-01T12:30:10.670Z,100476.91
2022-10-01T12:32:44.504Z,100468.31
2022-10-01T12:35:35.824Z,100463.91
2022-10-01T12:38:30.120Z,100472.63
2022-10-01T12:41:24.650Z,100464.72
2022-10-01T12:44:29.942Z,100456.72
2022-10-01T12:47:08.585Z,100453.22
2022-10-01T12:49:44.914Z,100462.56
2022-10-01T12:52:23.175Z,100462.63
2022-10-01T12:55:05.304Z,100454.03
2022-10-01T12:57:40.926Z,100462.66
2022-10-01T13:00:13.517Z,100468.59
2022-10-01T13:02:46.082Z,100463.53
2022-10-01T13:05:26.539Z,100466.16
2022-10-01T13:08:06.724Z,100471.31
2022-10-01T13:11:00.440Z,100464.38
2022-10-01T13:13:33.558Z,100469.59
2022-10-01T13:16:05.345Z,100466.13
2022-10-01T13:18:58.108Z,100476.34
2022-10-01T13:22:00.994Z,100471.94
2022-10-01T13:24:51.285Z,100469.31
2022-10-01T13:28:07.974Z,100476.56
2022-10-01T13:31:03.148Z,100470.22
2022-10-01T13:33:38.072Z,100472.03
2022-10-01T13:36:06.763Z,100465.06
2022-10-01T13:38:39.051Z,100472.19
2022-10-01T13:41:16.596Z,100467.81
2022-10-01T13:43:56.846Z,100461.63
2022-10-01T13:46:25.659Z,100473.78
2022-10-01T13:48:53.273Z,100478.97
2022-10-01T13:51:20.379Z,100477.88
2022-10-01T13:53:55.022Z,100476.91
2022-10-01T13:56:37.203Z,100475.91
2022-10-01T13:59:20.729Z,100479.28
2022-10-01T14:01:47.763Z,100481.56
2022-10-01T14:04:22.174Z,100493.69
2022-10-01T14:06:57.011Z,100482.38
2022-10-01T14:09:27.689Z,100483.28
2022-10-01T14:12:20.687Z,100490.19
2022-10-01T14:15:15.176Z,100484.84
2022-10-01T14:17:43.743Z,100484.84
2022-10-01T14:20:20.710Z,100488.75
2022-10-01T14:22:53.523Z,100497.03
2022-10-01T14:25:23.292Z,100503.84
2022-10-01T14:28:14.772Z,100494.22
2022-10-01T14:30:53.853Z,100494.28
2022-10-01T14:33:44.879Z,100493.16
2022-10-01T14:36:14.478Z,100491.56
2022-10-01T14:38:41.027Z,100504.94
2022-10-01T14:41:17.290Z,100495.34
2022-10-01T14:43:43.784Z,100500.63
2022-10-01T14:46:14.365Z,100503.25
2022-10-01T14:48:41.315Z,100503.31
2022-10-01T14:51:23.487Z,100505.81
2022-10-01T14:53:51.556Z,100497.63
2022-10-01T14:56:18.125Z,100501.06
2022-10-01T14:58:48.823Z,100506.28
2022-10-01T15:01:26.407Z,100494.84
2022-10-01T15:03:53.383Z,100503.53
2022-10-01T15:06:29.872Z,100501.00
2022-10-01T15:09:13.069Z,100499.25
2022-10-01T15:11:44.179Z,100494.97
2022-10-01T15:14:19.046Z,100510.84
2022-10-01T15:16:46.157Z,100508.13
2022-10-01T15:19:19.450Z,100513.38
2022-10-01T15:21:51.154Z,100507.38
2022-10-01T15:24:23.219Z,100503.00
2022-10-01T15:26:51.239Z,100515.22
2022-10-01T15:29:18.026Z,100511.84
2022-10-01T15:31:50.322Z,100517.16
2022-10-01T15:34:19.406Z,100511.78
2022-10-01T15:36:48.391Z,100524.78
2022-10-01T15:39:30.390Z,100519.78
2022-10-01T15:42:02.731Z,100521.22
2022-10-01T15:44:45.385Z,100519.50
2022-10-01T15:47:20.851Z,100517.84
2022-10-01T15:50:08.691Z,100531.78
2022-10-01T15:52:50.815Z,100524.78
2022-10-01T15:55:21.637Z,100528.00
2022-10-01T15:58:03.253Z,100541.72
2022-10-01T16:00:34.796Z,100538.53
2022-10-01T16:03:02.578Z,100550.97
2022-10-01T16:05:37.883Z,100539.56
2022-10-01T16:08:05.375Z,100544.13
2022-10-01T16:10:42.571Z,100539.00
2022-10-01T16:13:52.647Z,100545.09
2022-10-01T16:16:21.611Z,100544.06
2022-10-01T16:21:40.460Z,100555.41
2022-10-01T16:24:28.603Z,100558.78
2022-10-01T16:27:00.817Z,100560.75
2022-10-01T16:29:27.414Z,100564.09
2022-10-01T16:31:55.767Z,100572.84
2022-10-01T16:34:22.411Z,100561.41
2022-10-01T16:36:49.004Z,100580.69
2022-10-01T16:39:15.638Z,100578.78
2022-10-01T16:41:44.759Z,100579.59
2022-10-01T16:44:13.808Z,100585.56
2022-10-01T16:46:41.234Z,100570.09
2022-10-01T16:49:15.447Z,100584.84
2022-10-01T16:51:42.766Z,100586.53
2022-10-01T16:54:22.263Z,100586.75
2022-10-01T16:56:50.726Z,100593.41
2022-10-01T16:59:17.788Z,100597.31
2022-10-01T17:01:45.152Z,100599.50
2022-10-01T17:04:13.427Z,100602.69
2022-10-01T17:06:41.026Z,100602.97
2022-10-01T17:09:08.269Z,100611.31
2022-10-01T17:11:35.608Z,100617.56
2022-10-01T17:14:03.438Z,100616.81
2022-10-01T17:16:30.042Z,100624.56
2022-10-01T17:18:56.675Z,100629.84
2022-10-01T17:21:23.166Z,100624.59
2022-10-01T17:23:53.324Z,100637.78
2022-10-01T17:26:20.167Z,100634.16
2022-10-01T17:28:46.642Z,100643.63
2022-10-01T17:31:18.031Z,100647.28
2022-10-01T17:33:45.222Z,100645.47
2022-10-01T17:36:12.545Z,100650.63
2022-10-01T17:38:40.429Z,100649.81
2022-10-01T17:41:07.805Z,100652.41
2022-10-01T17:43:36.865Z,100658.66
2022-10-01T17:46:03.733Z,100661.25
2022-10-01T17:48:30.594Z,100666.50
2022-10-01T17:51:06.788Z,100675.13
2022-10-01T17:53:41.884Z,100675.16
2022-10-01T17:56:19.377Z,100672.59
2022-10-01T17:58:46.461Z,100672.56
2022-10-01T18:01:19.886Z,100680.47
2022-10-01T18:03:46.678Z,100679.53
2022-10-01T18:06:16.119Z,100684.00
2022-10-01T18:08:57.880Z,100690.03
2022-10-01T18:11:27.251Z,100697.06
2022-10-01T18:13:53.754Z,100707.50
2022-10-01T18:16:20.785Z,100705.75
2022-10-01T18:19:51.808Z,100717.06
2022-10-01T18:21:34.484Z,100730.06
2022-10-01T18:24:04.582Z,100728.28
2022-10-01T18:26:32.286Z,100730.91
2022-10-01T18:28:59.027Z,100732.59
2022-10-01T18:31:27.382Z,100732.66
2022-10-01T18:33:59.937Z,100736.09
2022-10-01T18:36:41.282Z,100734.28
2022-10-01T18:39:33.415Z,100734.31
2022-10-01T18:42:02.492Z,100735.13
2022-10-01T18:44:29.073Z,100730.84
2022-10-01T18:47:15.094Z,100736.06
2022-10-01T18:49:47.743Z,100731.81
2022-10-01T18:52:46.205Z,100741.25
2022-10-01T18:55:21.174Z,100745.47
2022-10-01T18:58:03.006Z,100741.22
2022-10-01T19:00:56.942Z,100747.25
2022-10-01T19:03:46.886Z,100748.19
2022-10-01T19:06:40.930Z,100756.03
2022-10-01T19:09:28.663Z,100759.56
2022-10-01T19:12:23.127Z,100762.94
2022-10-01T19:15:10.533Z,100767.19
2022-10-01T19:18:10.211Z,100761.22
2022-10-01T19:20:52.134Z,100765.53
2022-10-01T19:23:47.717Z,100774.19
2022-10-01T19:26:26.650Z,100774.13
2022-10-01T19:29:19.707Z,100780.28
2022-10-01T19:32:13.115Z,100775.91
2022-10-01T19:34:43.102Z,100777.63
2022-10-01T19:37:24.526Z,100779.50
2022-10-01T19:39:52.424Z,100787.13
2022-10-01T19:42:25.118Z,100794.19
2022-10-01T19:45:16.558Z,100789.88
2022-10-01T19:47:54.701Z,100788.97
2022-10-01T19:50:33.764Z,100793.28
2022-10-01T19:53:03.627Z,100794.94
2022-10-01T19:55:38.588Z,100797.69
2022-10-01T19:58:18.834Z,100801.13
2022-10-01T20:00:50.849Z,100805.47
2022-10-01T20:03:26.029Z,100809.66
2022-10-01T20:06:00.350Z,100813.97
2022-10-01T20:08:59.390Z,100812.88
2022-10-01T20:11:38.452Z,100814.94
2022-10-01T20:14:45.312Z,100818.44
2022-10-01T20:17:30.201Z,100824.47
2022-10-01T20:20:32.467Z,100833.66
2022-10-01T20:23:11.478Z,100841.22
2022-10-01T20:25:54.189Z,100831.97
2022-10-01T20:29:16.172Z,100830.94
2022-10-01T20:32:03.218Z,100833.63
2022-10-01T20:34:55.817Z,100839.34
2022-10-01T20:37:40.869Z,100842.09
2022-10-01T20:40:27.332Z,100841.06
2022-10-01T20:43:04.542Z,100840.44
2022-10-01T20:45:34.091Z,100840.34
2022-10-01T20:48:20.217Z,100835.13
2022-10-01T20:50:51.900Z,100840.97
2022-10-01T20:53:39.485Z,100843.94
2022-10-01T20:56:16.378Z,100848.84
2022-10-01T20:58:57.012Z,100849.91
2022-10-01T21:01:26.335Z,100840.78
2022-10-01T21:04:00.346Z,100841.88
2022-10-01T21:06:37.108Z,100848.53
2022-10-01T21:09:14.825Z,100857.03
2022-10-01T21:11:49.205Z,100857.88
2022-10-01T21:14:47.791Z,100849.00
2022-10-01T21:17:20.450Z,100846.25
2022-10-01T21:20:20.365Z,100847.72
2022-10-01T21:23:16.351Z,100840.22
2022-10-01T21:25:48.795Z,100845.31
2022-10-01T21:28:21.496Z,100840.28
2022-10-01T21:31:08.104Z,100842.72
2022-10-01T21:33:44.201Z,100844.47
2022-10-01T21:36:10.775Z,100840.66
2022-10-01T21:38:48.990Z,100847.44
2022-10-01T21:41:43.677Z,100849.38
2022-10-01T21:44:19.212Z,100847.47
2022-10-01T21:46:58.848Z,100848.34
2022-10-01T21:49:36.549Z,100846.56
2022-10-01T21:52:21.744Z,100838.84
2022-10-01T21:55:03.484Z,100840.97
2022-10-01T21:57:32.952Z,100837.44
2022-10-01T22:00:28.637Z,100831.13
2022-10-01T22:03:26.487Z,100830.16
2022-10-01T22:06:03.118Z,100823.88
2022-10-01T22:09:09.873Z,100823.38
2022-10-01T22:11:49.276Z,100821.28
2022-10-01T22:14:21.055Z,100821.16
2022-10-01T22:17:05.531Z,100819.53
2022-10-01T22:19:39.325Z,100822.97
2022-10-01T22:22:29.887Z,100829.22
2022-10-01T22:24:59.468Z,100830.03
2022-10-01T22:27:28.894Z,100819.53
2022-10-01T22:30:13.684Z,100818.78
2022-10-01T22:32:50.126Z,100813.31
2022-10-01T22:35:22.556Z,100812.47
2022-10-01T22:37:58.719Z,100814.25
2022-10-01T22:40:32.845Z,100817.94
2022-10-01T22:43:09.239Z,100817.75
2022-10-01T22:45:41.654Z,100819.47
2022-10-01T22:48:14.210Z,100814.16
2022-10-01T22:51:12.260Z,100814.25
2022-10-01T22:54:09.278Z,100808.91
2022-10-01T22:56:49.731Z,100814.75
2022-10-01T22:59:32.177Z,100812.19
2022-10-01T23:02:23.015Z,100803.13
2022-10-01T23:05:01.396Z,100800.53
2022-10-01T23:07:54.153Z,100805.63
2022-10-01T23:10:42.002Z,100803.25
2022-10-01T23:13:33.221Z,100812.53
2022-10-01T23:16:11.800Z,100816.41
2022-10-01T23:18:40.088Z,100815.53
2022-10-01T23:21:22.397Z,100821.59
2022-10-01T23:24:01.076Z,100820.59
2022-10-01T23:27:04.248Z,100824.81
2022-10-01T23:29:49.419Z,100816.94
2022-10-01T23:32:40.454Z,100819.63
2022-10-01T23:35:14.451Z,100814.59
2022-10-01T23:37:58.238Z,100820.38
2022-10-01T23:40:32.941Z,100813.97
2022-10-01T23:43:10.580Z,100812.28
2022-10-01T23:45:49.366Z,100821.44
2022-10-01T23:48:25.529Z,100823.25
2022-10-01T23:51:03.475Z,100827.59
2022-10-01T23:53:40.517Z,100825.91
2022-10-01T23:56:45.300Z,100830.16
2022-10-01T23:59:31.563Z,100829.94
